Time;durP1;ratioP1;P1;durP2;ratioP2;P2;SDS_P1;SDS_P2;PMS_P1;PMS_P2;Temp;Humidity;BMP_temperature;BMP_pressure;BME280_temperature;BME280_humidity;BME280_pressure;Samples;Min_cycle;Max_cycle;Signal;HPM_P1;HPM_P2
2022/08/18 00:01:30;;;;;;;;;;;18.60;99.90;;;;;;5016052;28;19921;-84
2022/08/18 00:03:59;;;;;;;;;;;18.60;99.90;;;;;;4995678;28;19936;-85
2022/08/18 00:06:24;;;;;;;;;;;18.60;99.90;;;;;;5011702;28;19921;-85
2022/08/18 00:08:50;;;;;;;;;;;18.60;99.90;;;;;;4994362;28;20048;-83
2022/08/18 00:11:16;;;;;;;;;;;18.60;99.90;;;;;;4994173;28;19928;-82
2022/08/18 00:13:42;;;;;;;;;;;18.50;99.90;;;;;;5010911;28;19929;-83
2022/08/18 00:16:08;;;;;;;;;;;18.50;99.90;;;;;;5009118;28;20434;-83
2022/08/18 00:18:34;;;;;;;;;;;18.50;99.90;;;;;;5012870;28;19921;-84
2022/08/18 00:21:01;;;;;;;;;;;18.50;99.90;;;;;;5021712;28;19933;-82
2022/08/18 00:23:27;;;;;;;;;;;18.50;99.90;;;;;;4995095;28;19976;-82
2022/08/18 00:25:54;;;;;;;;;;;18.50;99.90;;;;;;5024301;28;19944;-81
2022/08/18 00:28:19;;;;;;;;;;;18.50;99.90;;;;;;5010543;28;19944;-81
2022/08/18 00:30:45;;;;;;;;;;;18.50;99.90;;;;;;5012327;28;20363;-84
2022/08/18 00:33:10;;;;;;;;;;;18.50;99.90;;;;;;5012344;28;19928;-83
2022/08/18 00:35:37;;;;;;;;;;;18.50;99.90;;;;;;5011584;28;19921;-83
2022/08/18 00:38:04;;;;;;;;;;;18.50;99.90;;;;;;5010840;28;19921;-82
2022/08/18 00:40:31;;;;;;;;;;;18.50;99.90;;;;;;5010446;28;19925;-82
2022/08/18 00:43:00;;;;;;;;;;;18.50;99.90;;;;;;5010125;28;19975;-82
2022/08/18 00:45:31;;;;;;;;;;;18.40;99.90;;;;;;4994276;28;19925;-83
2022/08/18 00:47:57;;;;;;;;;;;18.40;99.90;;;;;;5009977;28;19949;-82
2022/08/18 00:50:27;;;;;;;;;;;18.40;99.90;;;;;;4993536;28;20023;-82
2022/08/18 00:52:56;;;;;;;;;;;18.70;99.90;;;;;;5009263;28;19971;-82
2022/08/18 00:55:22;;;;;;;;;;;18.40;99.90;;;;;;5010374;28;19921;-82
2022/08/18 00:57:49;;;;;;;;;;;18.40;99.90;;;;;;5009549;28;19954;-82
2022/08/18 01:00:15;;;;;;;;;;;18.40;99.90;;;;;;5009619;28;20413;-83
2022/08/18 01:02:42;;;;;;;;;;;18.40;99.90;;;;;;5009361;28;19921;-82
2022/08/18 01:05:21;;;;;;;;;;;18.40;99.90;;;;;;4994190;28;19925;-82
2022/08/18 01:07:47;;;;;;;;;;;18.40;99.90;;;;;;5009599;28;19922;-82
2022/08/18 01:10:15;;;;;;;;;;;18.30;99.90;;;;;;5010101;28;20434;-83
2022/08/18 01:12:45;;;;;;;;;;;18.30;99.90;;;;;;4994731;28;20325;-83
2022/08/18 01:15:12;;;;;;;;;;;18.30;99.90;;;;;;5010531;28;19937;-82
2022/08/18 01:23:14;;;;;;;;;;;18.30;99.90;;;;;;5010181;28;19928;-83
2022/08/18 01:28:23;;;;;;;;;;;18.30;99.90;;;;;;5008247;28;19925;-81
2022/08/18 01:30:56;;;;;;;;;;;18.30;99.90;;;;;;5009606;28;20001;-82
2022/08/18 01:33:28;;;;;;;;;;;18.30;99.90;;;;;;4993272;28;20333;-82
2022/08/18 01:35:53;;;;;;;;;;;18.30;99.90;;;;;;5009280;28;20267;-82
2022/08/18 01:38:21;;;;;;;;;;;18.30;99.90;;;;;;5008958;28;19929;-83
2022/08/18 01:40:47;;;;;;;;;;;18.40;99.90;;;;;;5011104;28;19940;-82
2022/08/18 01:43:13;;;;;;;;;;;18.70;99.90;;;;;;5009799;28;19925;-83
2022/08/18 01:45:39;;;;;;;;;;;18.30;99.90;;;;;;5009097;28;20028;-82
2022/08/18 01:48:05;;;;;;;;;;;18.30;99.90;;;;;;5011067;28;19921;-83
2022/08/18 01:50:34;;;;;;;;;;;18.30;99.90;;;;;;4992818;28;19921;-83
2022/08/18 01:53:01;;;;;;;;;;;18.30;99.90;;;;;;5008176;28;19968;-83
2022/08/18 01:55:27;;;;;;;;;;;18.30;99.90;;;;;;4992839;28;20341;-82
2022/08/18 01:57:53;;;;;;;;;;;18.30;99.90;;;;;;4992988;28;19921;-82
2022/08/18 02:00:19;;;;;;;;;;;18.30;99.90;;;;;;5009125;28;20378;-82
2022/08/18 02:02:45;;;;;;;;;;;18.30;99.90;;;;;;4992683;28;19944;-82
2022/08/18 02:05:15;;;;;;;;;;;18.30;99.90;;;;;;5007552;28;19953;-82
2022/08/18 02:07:41;;;;;;;;;;;18.30;99.90;;;;;;5008012;28;20000;-82
2022/08/18 02:10:08;;;;;;;;;;;18.20;99.90;;;;;;4992421;28;20007;-83
2022/08/18 02:12:34;;;;;;;;;;;18.20;99.90;;;;;;5010252;28;20034;-83
2022/08/18 02:14:59;;;;;;;;;;;18.30;99.90;;;;;;5008798;28;19921;-82
2022/08/18 02:17:25;;;;;;;;;;;18.20;99.90;;;;;;5009442;28;20043;-83
2022/08/18 02:19:50;;;;;;;;;;;18.20;99.90;;;;;;5010537;28;19932;-83
2022/08/18 02:22:17;;;;;;;;;;;18.20;99.90;;;;;;5010592;28;19921;-83
2022/08/18 02:24:43;;;;;;;;;;;18.30;99.90;;;;;;5012756;28;19975;-82
2022/08/18 02:27:11;;;;;;;;;;;18.20;99.90;;;;;;5018729;28;19926;-82
2022/08/18 02:29:41;;;;;;;;;;;18.20;99.90;;;;;;5013770;28;20016;-83
2022/08/18 02:32:07;;;;;;;;;;;18.20;99.90;;;;;;5011851;28;20331;-82
2022/08/18 02:34:33;;;;;;;;;;;18.20;99.90;;;;;;5010523;28;20220;-83
2022/08/18 02:36:59;;;;;;;;;;;18.20;99.90;;;;;;5011167;28;19936;-83
2022/08/18 02:39:25;;;;;;;;;;;18.20;99.90;;;;;;5008921;28;19925;-83
2022/08/18 02:41:51;;;;;;;;;;;18.20;99.90;;;;;;4992609;28;19971;-83
2022/08/18 02:44:16;;;;;;;;;;;18.20;99.90;;;;;;4992979;28;19922;-82
2022/08/18 02:46:42;;;;;;;;;;;18.20;99.90;;;;;;4993055;28;19972;-82
2022/08/18 02:49:07;;;;;;;;;;;18.40;99.90;;;;;;5009639;28;20076;-83
2022/08/18 02:51:33;;;;;;;;;;;18.20;99.90;;;;;;4993987;28;19952;-83
2022/08/18 02:53:58;;;;;;;;;;;18.20;99.90;;;;;;5011524;28;19972;-83
2022/08/18 02:56:28;;;;;;;;;;;18.30;99.90;;;;;;5013749;28;20375;-83
2022/08/18 02:58:53;;;;;;;;;;;18.20;99.90;;;;;;5010982;28;19924;-83
2022/08/18 03:01:20;;;;;;;;;;;18.20;99.90;;;;;;4992508;28;19943;-82
2022/08/18 03:03:46;;;;;;;;;;;18.30;99.90;;;;;;5010066;28;19925;-82
2022/08/18 03:06:12;;;;;;;;;;;18.30;99.90;;;;;;5009645;28;19991;-82
2022/08/18 03:08:37;;;;;;;;;;;18.30;99.90;;;;;;5008556;28;20411;-83
2022/08/18 03:11:03;;;;;;;;;;;18.20;99.90;;;;;;5008352;28;20032;-84
2022/08/18 03:13:29;;;;;;;;;;;18.30;99.90;;;;;;5007615;28;19926;-83
2022/08/18 03:15:55;;;;;;;;;;;18.30;99.90;;;;;;5007540;28;19922;-83
2022/08/18 03:18:21;;;;;;;;;;;18.40;99.90;;;;;;4990364;28;19928;-82
2022/08/18 03:20:48;;;;;;;;;;;18.40;99.90;;;;;;4991369;28;19929;-83
2022/08/18 03:23:13;;;;;;;;;;;18.40;99.90;;;;;;5008397;28;19931;-81
2022/08/18 03:25:46;;;;;;;;;;;18.30;99.90;;;;;;5019077;28;19922;-82
2022/08/18 03:28:12;;;;;;;;;;;18.30;99.90;;;;;;5012616;28;20008;-81
2022/08/18 03:30:38;;;;;;;;;;;18.30;99.90;;;;;;5007168;28;20392;-81
2022/08/18 03:33:04;;;;;;;;;;;18.30;99.90;;;;;;4991667;28;20023;-81
2022/08/18 03:35:29;;;;;;;;;;;18.30;99.90;;;;;;5008972;28;19929;-82
2022/08/18 03:37:58;;;;;;;;;;;18.30;99.90;;;;;;5007520;28;19921;-82
2022/08/18 03:40:24;;;;;;;;;;;18.30;99.90;;;;;;4990655;28;19925;-83
2022/08/18 03:42:49;;;;;;;;;;;18.30;99.90;;;;;;5009325;28;20438;-82
2022/08/18 03:45:15;;;;;;;;;;;18.30;99.90;;;;;;5007279;28;19945;-83
2022/08/18 03:47:40;;;;;;;;;;;18.30;99.90;;;;;;5007621;28;20389;-83
2022/08/18 03:50:06;;;;;;;;;;;18.30;99.90;;;;;;5007472;28;19928;-83
2022/08/18 03:52:32;;;;;;;;;;;18.30;99.90;;;;;;5006869;28;20036;-82
2022/08/18 03:54:58;;;;;;;;;;;18.30;99.90;;;;;;5006411;28;19976;-83
2022/08/18 03:57:24;;;;;;;;;;;18.50;99.90;;;;;;5008814;28;19980;-83
2022/08/18 03:59:49;;;;;;;;;;;18.30;99.90;;;;;;4991238;28;19921;-84
2022/08/18 04:02:15;;;;;;;;;;;18.30;99.90;;;;;;5007070;28;19921;-83
2022/08/18 04:04:41;;;;;;;;;;;18.50;99.90;;;;;;5007781;28;19921;-84
2022/08/18 04:07:09;;;;;;;;;;;18.30;99.90;;;;;;5007961;28;19929;-84
2022/08/18 04:09:35;;;;;;;;;;;18.30;99.90;;;;;;4994486;28;19925;-83
2022/08/18 04:12:14;;;;;;;;;;;18.30;99.90;;;;;;5028550;28;19998;-83
2022/08/18 04:14:40;;;;;;;;;;;18.30;99.90;;;;;;5004212;28;19948;-84
2022/08/18 04:17:06;;;;;;;;;;;18.30;99.90;;;;;;4994129;28;19975;-80
2022/08/18 04:19:33;;;;;;;;;;;18.30;99.90;;;;;;5022150;28;20516;-80
2022/08/18 04:21:59;;;;;;;;;;;18.30;99.90;;;;;;5010918;28;19936;-80
2022/08/18 04:24:26;;;;;;;;;;;18.30;99.90;;;;;;5025319;28;19921;-81
2022/08/18 04:26:51;;;;;;;;;;;18.30;99.90;;;;;;5010589;28;20024;-81
2022/08/18 04:29:20;;;;;;;;;;;18.30;99.90;;;;;;5013931;28;20011;-83
2022/08/18 04:31:46;;;;;;;;;;;18.30;99.90;;;;;;5015015;28;19979;-85
2022/08/18 04:34:12;;;;;;;;;;;18.30;99.90;;;;;;4996404;28;19922;-85
2022/08/18 04:36:38;;;;;;;;;;;18.30;99.90;;;;;;5031878;28;19927;-84
2022/08/18 04:39:08;;;;;;;;;;;18.40;99.90;;;;;;5013266;28;19948;-83
2022/08/18 04:41:34;;;;;;;;;;;18.30;99.90;;;;;;5015557;28;19974;-83
2022/08/18 04:44:01;;;;;;;;;;;18.40;99.90;;;;;;5014279;28;19921;-83
2022/08/18 04:46:27;;;;;;;;;;;18.30;99.90;;;;;;4997762;28;20288;-84
2022/08/18 04:48:57;;;;;;;;;;;18.40;99.90;;;;;;5013342;28;19928;-83
2022/08/18 04:51:23;;;;;;;;;;;18.40;99.90;;;;;;5013747;28;19928;-84
2022/08/18 04:53:49;;;;;;;;;;;18.30;99.90;;;;;;5031506;28;19931;-83
2022/08/18 04:56:25;;;;;;;;;;;18.40;99.90;;;;;;4996991;28;20003;-81
2022/08/18 04:58:56;;;;;;;;;;;18.40;99.90;;;;;;4997004;28;19932;-83
2022/08/18 05:01:23;;;;;;;;;;;18.40;99.90;;;;;;5013502;28;19928;-84
2022/08/18 05:03:50;;;;;;;;;;;18.40;99.90;;;;;;5017452;28;19924;-82
2022/08/18 05:06:16;;;;;;;;;;;18.40;99.90;;;;;;5031095;28;19948;-83
2022/08/18 05:08:41;;;;;;;;;;;18.40;99.90;;;;;;5009209;28;20329;-84
2022/08/18 05:11:08;;;;;;;;;;;18.40;99.90;;;;;;5008631;28;20016;-83
2022/08/18 05:13:34;;;;;;;;;;;18.40;99.90;;;;;;5008411;28;20015;-83
2022/08/18 05:16:02;;;;;;;;;;;18.50;99.90;;;;;;5006148;28;20017;-83
2022/08/18 05:18:32;;;;;;;;;;;18.50;99.90;;;;;;5011788;28;19929;-84
2022/08/18 05:20:59;;;;;;;;;;;18.50;99.90;;;;;;4990781;28;19925;-84
2022/08/18 05:23:24;;;;;;;;;;;18.50;99.90;;;;;;4993049;28;19922;-83
2022/08/18 05:25:55;;;;;;;;;;;18.80;99.90;;;;;;5008373;28;20392;-83
2022/08/18 05:28:20;;;;;;;;;;;18.50;99.90;;;;;;5024940;28;20162;-83
2022/08/18 05:30:46;;;;;;;;;;;18.60;99.90;;;;;;5010717;28;19968;-82
2022/08/18 05:33:11;;;;;;;;;;;18.60;99.90;;;;;;5005199;28;19932;-84
2022/08/18 05:35:41;;;;;;;;;;;18.60;99.90;;;;;;5002915;28;20278;-83
2022/08/18 05:38:32;;;;;;;;;;;18.60;99.90;;;;;;5014343;28;19921;-84
2022/08/18 05:41:03;;;;;;;;;;;18.60;99.90;;;;;;5009641;28;19921;-84
2022/08/18 05:43:29;;;;;;;;;;;18.60;99.90;;;;;;5007175;28;20425;-81
2022/08/18 05:45:55;;;;;;;;;;;18.70;99.90;;;;;;5011965;28;19929;-85
2022/08/18 05:48:21;;;;;;;;;;;18.70;99.90;;;;;;4992956;28;19925;-85
2022/08/18 05:50:47;;;;;;;;;;;18.70;99.90;;;;;;4993914;28;20012;-84
2022/08/18 05:53:13;;;;;;;;;;;18.80;99.90;;;;;;5008161;28;19928;-84
2022/08/18 05:58:38;;;;;;;;;;;18.80;99.90;;;;;;5011297;28;19976;-84
2022/08/18 06:01:07;;;;;;;;;;;18.80;99.90;;;;;;4993494;28;20450;-82
2022/08/18 06:03:40;;;;;;;;;;;18.70;99.90;;;;;;5008597;28;19937;-84
2022/08/18 06:06:09;;;;;;;;;;;18.80;99.90;;;;;;5011060;28;20347;-81
2022/08/18 06:08:47;;;;;;;;;;;18.80;99.90;;;;;;4992080;28;19932;-84
2022/08/18 06:11:13;;;;;;;;;;;18.90;99.90;;;;;;4990946;28;20524;-80
2022/08/18 06:13:39;;;;;;;;;;;18.80;99.90;;;;;;5009162;28;20476;-81
2022/08/18 06:16:22;;;;;;;;;;;18.80;99.90;;;;;;5010641;28;19925;-81
2022/08/18 06:18:47;;;;;;;;;;;18.80;99.90;;;;;;5008810;28;20009;-86
2022/08/18 06:21:16;;;;;;;;;;;18.90;99.90;;;;;;5008058;28;20345;-87
2022/08/18 06:24:00;;;;;;;;;;;19.00;99.90;;;;;;4993083;28;20004;-82
2022/08/18 06:26:33;;;;;;;;;;;19.00;99.90;;;;;;4992335;28;20378;-84
2022/08/18 06:28:59;;;;;;;;;;;19.00;99.90;;;;;;5021844;28;19949;-86
2022/08/18 06:31:28;;;;;;;;;;;19.00;99.90;;;;;;5005765;28;19921;-80
2022/08/18 06:34:05;;;;;;;;;;;19.00;99.90;;;;;;5030575;28;20402;-81
2022/08/18 06:36:34;;;;;;;;;;;19.00;99.90;;;;;;5031064;28;19922;-81
2022/08/18 06:39:03;;;;;;;;;;;19.00;99.90;;;;;;5014737;28;19928;-82
2022/08/18 06:41:30;;;;;;;;;;;18.90;99.90;;;;;;4990032;28;19932;-84
2022/08/18 06:44:10;;;;;;;;;;;19.00;99.90;;;;;;4985898;28;20008;-83
2022/08/18 06:46:40;;;;;;;;;;;18.80;99.90;;;;;;5018615;28;19928;-84
2022/08/18 06:49:10;;;;;;;;;;;18.90;99.90;;;;;;5007900;28;21743;-82
2022/08/18 06:51:36;;;;;;;;;;;18.90;99.90;;;;;;5004004;28;19952;-79
2022/08/18 06:54:22;;;;;;;;;;;18.90;99.90;;;;;;5007238;28;20457;-80
2022/08/18 06:56:48;;;;;;;;;;;18.90;99.90;;;;;;4992169;28;19921;-78
2022/08/18 06:59:14;;;;;;;;;;;19.00;99.90;;;;;;5006344;28;20445;-81
2022/08/18 07:01:40;;;;;;;;;;;18.90;99.90;;;;;;5003506;28;19987;-81
2022/08/18 07:04:06;;;;;;;;;;;19.00;99.90;;;;;;5008516;28;19922;-79
2022/08/18 07:06:31;;;;;;;;;;;18.90;99.90;;;;;;5007585;28;20310;-82
2022/08/18 07:09:16;;;;;;;;;;;18.90;99.90;;;;;;4990327;28;19940;-83
2022/08/18 07:11:56;;;;;;;;;;;18.90;99.90;;;;;;4990856;28;19944;-82
2022/08/18 07:14:24;;;;;;;;;;;19.00;99.90;;;;;;5008028;28;21379;-82
2022/08/18 07:16:59;;;;;;;;;;;19.10;99.90;;;;;;4990750;28;19921;-77
2022/08/18 07:19:28;;;;;;;;;;;19.10;99.90;;;;;;4990962;28;19936;-81
2022/08/18 07:22:09;;;;;;;;;;;19.20;99.90;;;;;;5007536;28;20357;-81
2022/08/18 07:24:43;;;;;;;;;;;19.20;99.90;;;;;;4989787;28;19922;-82
2022/08/18 07:27:16;;;;;;;;;;;19.30;99.90;;;;;;4987800;28;20353;-78
2022/08/18 07:29:59;;;;;;;;;;;19.40;99.90;;;;;;5007147;28;20208;-80
2022/08/18 07:32:33;;;;;;;;;;;19.50;99.90;;;;;;5006416;28;19928;-80
2022/08/18 07:35:02;;;;;;;;;;;19.70;99.90;;;;;;4988022;28;19936;-82
2022/08/18 07:37:41;;;;;;;;;;;19.70;99.90;;;;;;5002585;28;20310;-82
2022/08/18 07:40:10;;;;;;;;;;;19.80;99.90;;;;;;5007559;28;20445;-86
2022/08/18 07:42:48;;;;;;;;;;;19.80;99.90;;;;;;5004533;28;19928;-82
2022/08/18 07:45:18;;;;;;;;;;;19.70;99.90;;;;;;5007357;28;19925;-83
2022/08/18 07:47:59;;;;;;;;;;;19.90;99.90;;;;;;5008443;28;19926;-81
2022/08/18 07:50:26;;;;;;;;;;;19.70;99.90;;;;;;5008109;28;20024;-80
2022/08/18 07:53:12;;;;;;;;;;;19.70;99.90;;;;;;5006758;28;19921;-83
2022/08/18 07:55:39;;;;;;;;;;;19.80;99.90;;;;;;5005712;28;20016;-83
2022/08/18 07:58:23;;;;;;;;;;;19.80;99.90;;;;;;5004596;28;20386;-80
2022/08/18 08:00:57;;;;;;;;;;;19.80;99.90;;;;;;5005637;28;19944;-80
2022/08/18 08:03:41;;;;;;;;;;;19.70;99.90;;;;;;5016545;28;20390;-80
2022/08/18 08:06:13;;;;;;;;;;;19.70;99.90;;;;;;5007177;28;19921;-85
2022/08/18 08:08:42;;;;;;;;;;;19.70;99.90;;;;;;5010909;28;19948;-80
2022/08/18 08:11:10;;;;;;;;;;;19.80;99.90;;;;;;5008336;28;19961;-81
2022/08/18 08:13:52;;;;;;;;;;;19.90;99.90;;;;;;4994812;28;19921;-83
2022/08/18 08:16:21;;;;;;;;;;;19.90;99.90;;;;;;5013264;28;19925;-81
2022/08/18 08:19:06;;;;;;;;;;;19.90;99.90;;;;;;4991257;28;20012;-79
2022/08/18 08:21:32;;;;;;;;;;;19.90;99.90;;;;;;5011088;28;20390;-79
2022/08/18 08:24:19;;;;;;;;;;;19.90;99.90;;;;;;5013216;28;20075;-80
2022/08/18 08:26:46;;;;;;;;;;;19.80;99.90;;;;;;5011807;28;19928;-78
2022/08/18 08:29:35;;;;;;;;;;;19.90;99.90;;;;;;5012357;28;19928;-83
2022/08/18 08:32:09;;;;;;;;;;;19.80;99.90;;;;;;5001518;28;19928;-81
2022/08/18 08:34:44;;;;;;;;;;;19.80;99.90;;;;;;5010725;28;19944;-78
2022/08/18 08:37:33;;;;;;;;;;;19.70;99.90;;;;;;5011538;28;20022;-83
2022/08/18 08:40:14;;;;;;;;;;;19.70;99.90;;;;;;4998117;28;20391;-81
2022/08/18 08:42:59;;;;;;;;;;;19.60;99.90;;;;;;5006617;28;20147;-80
2022/08/18 08:45:27;;;;;;;;;;;19.70;99.90;;;;;;5008894;28;19987;-83
2022/08/18 08:48:00;;;;;;;;;;;19.90;99.90;;;;;;5007777;28;20398;-79
2022/08/18 08:50:27;;;;;;;;;;;20.10;99.90;;;;;;5010003;28;20909;-80
2022/08/18 08:53:26;;;;;;;;;;;20.20;99.90;;;;;;5010443;28;19921;-80
2022/08/18 08:55:57;;;;;;;;;;;20.30;99.90;;;;;;4975617;28;19935;-80
2022/08/18 08:58:28;;;;;;;;;;;20.40;99.90;;;;;;5010847;28;19928;-78
2022/08/18 09:00:54;;;;;;;;;;;20.40;99.90;;;;;;5009654;28;19925;-80
2022/08/18 09:03:25;;;;;;;;;;;20.40;99.90;;;;;;5010967;28;20381;-81
2022/08/18 09:05:51;;;;;;;;;;;20.50;99.90;;;;;;5012013;28;20385;-82
2022/08/18 09:08:43;;;;;;;;;;;20.50;99.90;;;;;;5009701;28;19928;-78
2022/08/18 09:11:12;;;;;;;;;;;20.60;99.90;;;;;;4979659;28;19960;-79
2022/08/18 09:13:50;;;;;;;;;;;20.60;99.90;;;;;;4991616;28;19922;-83
2022/08/18 09:16:34;;;;;;;;;;;20.70;99.90;;;;;;5007672;28;20378;-79
2022/08/18 09:19:20;;;;;;;;;;;21.40;99.90;;;;;;5012367;28;19921;-82
2022/08/18 09:22:05;;;;;;;;;;;21.80;99.90;;;;;;5010361;28;20012;-79
2022/08/18 09:24:38;;;;;;;;;;;21.80;99.90;;;;;;4993675;28;19925;-80
2022/08/18 09:27:22;;;;;;;;;;;21.70;99.90;;;;;;5009689;28;19925;-82
2022/08/18 09:29:56;;;;;;;;;;;21.40;99.90;;;;;;4989690;28;20348;-84
2022/08/18 09:32:21;;;;;;;;;;;21.30;99.90;;;;;;5006381;28;19933;-81
2022/08/18 09:35:06;;;;;;;;;;;21.10;99.90;;;;;;5007124;28;19926;-80
2022/08/18 09:37:31;;;;;;;;;;;21.10;99.90;;;;;;4986236;28;19929;-80
2022/08/18 09:42:51;;;;;;;;;;;21.20;99.90;;;;;;5008846;28;19925;-83
2022/08/18 09:45:29;;;;;;;;;;;21.30;99.90;;;;;;5006616;28;19927;-84
2022/08/18 09:47:55;;;;;;;;;;;21.30;99.90;;;;;;4989320;28;19932;-83
2022/08/18 09:50:29;;;;;;;;;;;21.20;99.90;;;;;;5008231;28;20406;-82
2022/08/18 09:52:57;;;;;;;;;;;21.10;99.90;;;;;;5009679;28;19921;-82
2022/08/18 09:55:23;;;;;;;;;;;21.10;99.90;;;;;;5008614;28;19921;-85
2022/08/18 09:58:08;;;;;;;;;;;21.00;99.90;;;;;;5008826;28;20012;-86
2022/08/18 10:00:34;;;;;;;;;;;21.00;99.90;;;;;;5007538;28;20012;-84
2022/08/18 10:03:02;;;;;;;;;;;21.00;99.90;;;;;;5026006;28;20012;-85
2022/08/18 10:05:28;;;;;;;;;;;21.10;99.90;;;;;;4992390;28;20473;-83
2022/08/18 10:08:13;;;;;;;;;;;21.00;99.90;;;;;;5009683;28;19929;-83
2022/08/18 10:10:50;;;;;;;;;;;21.00;99.90;;;;;;4992372;28;19932;-82
2022/08/18 10:13:22;;;;;;;;;;;20.90;99.90;;;;;;4990920;28;19963;-84
2022/08/18 10:16:09;;;;;;;;;;;20.90;99.90;;;;;;5010016;28;19933;-87
2022/08/18 10:18:37;;;;;;;;;;;20.90;99.90;;;;;;4991039;28;19928;-86
2022/08/18 10:21:08;;;;;;;;;;;20.90;99.90;;;;;;5011092;28;19961;-84
2022/08/18 10:23:40;;;;;;;;;;;20.90;99.90;;;;;;4992034;28;19932;-83
2022/08/18 10:26:25;;;;;;;;;;;21.00;99.90;;;;;;5002784;28;19921;-84
2022/08/18 10:28:53;;;;;;;;;;;21.10;99.90;;;;;;4969432;28;20295;-84
2022/08/18 10:31:18;;;;;;;;;;;21.20;99.90;;;;;;5002833;28;19928;-85
2022/08/18 10:33:53;;;;;;;;;;;21.20;99.90;;;;;;5005929;28;19921;-84
2022/08/18 10:36:37;;;;;;;;;;;21.20;99.90;;;;;;5003394;28;19922;-86
2022/08/18 10:39:03;;;;;;;;;;;21.20;99.90;;;;;;4987738;28;19983;-87
2022/08/18 10:41:30;;;;;;;;;;;21.20;99.90;;;;;;4989345;28;19925;-83
2022/08/18 10:43:57;;;;;;;;;;;21.20;99.90;;;;;;4983298;28;20310;-86
2022/08/18 10:46:25;;;;;;;;;;;21.30;99.90;;;;;;5003635;28;19997;-84
2022/08/18 10:49:02;;;;;;;;;;;21.30;99.90;;;;;;4987242;28;19925;-88
2022/08/18 10:51:46;;;;;;;;;;;21.50;99.90;;;;;;5002577;28;19925;-87
2022/08/18 10:54:21;;;;;;;;;;;21.70;99.90;;;;;;5005051;28;20008;-88
2022/08/18 10:56:49;;;;;;;;;;;21.80;99.90;;;;;;5006051;28;19922;-83
2022/08/18 10:59:24;;;;;;;;;;;21.80;99.90;;;;;;5005587;28;19921;-85
2022/08/18 11:02:15;;;;;;;;;;;21.80;99.90;;;;;;5007326;28;20286;-88
2022/08/18 11:04:40;;;;;;;;;;;21.90;99.90;;;;;;5008926;28;19921;-87
2022/08/18 11:07:14;;;;;;;;;;;21.90;99.90;;;;;;5005798;28;19922;-86
2022/08/18 11:09:41;;;;;;;;;;;21.90;99.90;;;;;;4991990;28;19921;-85
2022/08/18 11:12:09;;;;;;;;;;;21.90;99.90;;;;;;5028464;28;20188;-82
2022/08/18 11:14:35;;;;;;;;;;;21.80;99.90;;;;;;5008573;28;19972;-83
2022/08/18 11:17:21;;;;;;;;;;;21.90;99.90;;;;;;5023688;28;19982;-83
2022/08/18 11:19:47;;;;;;;;;;;22.10;99.90;;;;;;5007316;28;20337;-82
2022/08/18 11:22:31;;;;;;;;;;;22.40;99.90;;;;;;4993386;28;19925;-87
2022/08/18 11:24:58;;;;;;;;;;;22.60;99.90;;;;;;5009086;28;19931;-84
2022/08/18 11:27:28;;;;;;;;;;;22.60;99.90;;;;;;5010433;28;19932;-82
2022/08/18 11:29:58;;;;;;;;;;;22.50;99.90;;;;;;4992896;28;20443;-83
2022/08/18 11:32:24;;;;;;;;;;;22.40;99.90;;;;;;5008774;28;20287;-86
2022/08/18 11:35:01;;;;;;;;;;;22.20;99.90;;;;;;5010966;28;19932;-86
2022/08/18 11:37:34;;;;;;;;;;;22.10;99.90;;;;;;5009097;28;19925;-85
2022/08/18 11:40:00;;;;;;;;;;;21.90;99.90;;;;;;5012251;28;19967;-87
2022/08/18 11:42:33;;;;;;;;;;;21.70;99.90;;;;;;5032140;28;20274;-85
2022/08/18 11:45:16;;;;;;;;;;;21.80;99.90;;;;;;5012256;28;19921;-87
2022/08/18 11:47:58;;;;;;;;;;;22.20;99.90;;;;;;5014332;28;20414;-86
2022/08/18 11:50:31;;;;;;;;;;;22.60;99.90;;;;;;4995002;28;20275;-86
2022/08/18 11:53:10;;;;;;;;;;;22.70;99.90;;;;;;5033591;28;19960;-82
2022/08/18 11:55:37;;;;;;;;;;;22.80;99.90;;;;;;4998724;28;19990;-85
2022/08/18 11:58:05;;;;;;;;;;;22.70;99.90;;;;;;4994599;28;19961;-85
2022/08/18 12:00:47;;;;;;;;;;;22.50;99.90;;;;;;5014872;28;20012;-87
2022/08/18 12:03:18;;;;;;;;;;;22.40;99.90;;;;;;5013936;28;19931;-87
2022/08/18 12:05:47;;;;;;;;;;;22.30;99.90;;;;;;5013712;28;19924;-86
2022/08/18 12:08:21;;;;;;;;;;;22.40;99.90;;;;;;4993494;28;19925;-86
2022/08/18 12:10:47;;;;;;;;;;;22.50;99.90;;;;;;5042675;28;19932;-80
2022/08/18 12:13:20;;;;;;;;;;;22.60;99.90;;;;;;5046662;28;19925;-84
2022/08/18 12:15:46;;;;;;;;;;;22.70;99.90;;;;;;5022875;28;19928;-85
2022/08/18 12:18:11;;;;;;;;;;;22.70;99.90;;;;;;5027550;28;19928;-84
2022/08/18 12:20:38;;;;;;;;;;;22.80;99.90;;;;;;5019517;28;19956;-83
2022/08/18 12:23:04;;;;;;;;;;;22.90;99.90;;;;;;5021575;28;19920;-84
2022/08/18 12:25:29;;;;;;;;;;;22.70;99.90;;;;;;5004454;28;19975;-83
2022/08/18 12:27:55;;;;;;;;;;;22.70;99.90;;;;;;5009617;28;19991;-84
2022/08/18 12:30:20;;;;;;;;;;;22.60;99.90;;;;;;4995765;28;19963;-86
2022/08/18 12:32:46;;;;;;;;;;;22.90;99.90;;;;;;5026495;28;19943;-84
2022/08/18 12:35:12;;;;;;;;;;;23.20;99.90;;;;;;5004254;28;19921;-87
2022/08/18 12:37:40;;;;;;;;;;;23.30;99.90;;;;;;5011707;28;19952;-83
2022/08/18 12:40:07;;;;;;;;;;;23.40;99.90;;;;;;4991828;28;19921;-86
2022/08/18 12:42:33;;;;;;;;;;;23.50;99.90;;;;;;4993191;28;20011;-86
2022/08/18 12:44:59;;;;;;;;;;;23.60;99.90;;;;;;4991951;28;19932;-84
2022/08/18 12:47:25;;;;;;;;;;;23.70;99.90;;;;;;5002924;28;19921;-83
2022/08/18 12:49:51;;;;;;;;;;;23.80;99.90;;;;;;5029709;28;20553;-86
2022/08/18 12:52:16;;;;;;;;;;;23.90;99.90;;;;;;4997341;28;19928;-83
2022/08/18 12:54:42;;;;;;;;;;;23.70;99.90;;;;;;5026780;28;19921;-87
2022/08/18 12:57:16;;;;;;;;;;;23.50;99.90;;;;;;4994854;28;19945;-82
2022/08/18 12:59:42;;;;;;;;;;;23.40;99.90;;;;;;4994185;28;19922;-87
2022/08/18 13:02:09;;;;;;;;;;;23.10;99.90;;;;;;5006002;28;20286;-83
2022/08/18 13:04:34;;;;;;;;;;;23.00;99.90;;;;;;4990591;28;19921;-84
2022/08/18 13:07:02;;;;;;;;;;;23.00;99.90;;;;;;5010353;28;19970;-85
2022/08/18 13:09:32;;;;;;;;;;;23.00;99.90;;;;;;5006490;28;20404;-85
2022/08/18 13:11:57;;;;;;;;;;;23.10;99.90;;;;;;5028852;28;19932;-85
2022/08/18 13:14:23;;;;;;;;;;;23.30;99.90;;;;;;5029599;28;19929;-83
2022/08/18 13:16:50;;;;;;;;;;;23.30;99.90;;;;;;4996057;28;20279;-87
2022/08/18 13:19:15;;;;;;;;;;;23.30;99.90;;;;;;5020646;28;19921;-84
2022/08/18 13:21:42;;;;;;;;;;;23.20;99.90;;;;;;4995459;28;20012;-85
2022/08/18 13:24:08;;;;;;;;;;;23.00;99.90;;;;;;4997228;28;20386;-83
2022/08/18 13:26:35;;;;;;;;;;;22.80;99.90;;;;;;4996393;28;19921;-85
2022/08/18 13:29:01;;;;;;;;;;;22.60;99.90;;;;;;4991974;28;19921;-83
2022/08/18 13:31:27;;;;;;;;;;;22.50;99.90;;;;;;5019000;28;20787;-87
2022/08/18 13:33:55;;;;;;;;;;;22.40;99.90;;;;;;5009060;28;19960;-85
2022/08/18 13:36:20;;;;;;;;;;;22.30;99.90;;;;;;5012689;28;19925;-85
2022/08/18 13:38:46;;;;;;;;;;;22.30;99.90;;;;;;5008960;28;19921;-84
2022/08/18 13:41:12;;;;;;;;;;;22.30;99.90;;;;;;5031017;28;20348;-86
2022/08/18 13:43:41;;;;;;;;;;;22.70;99.90;;;;;;5012423;28;20370;-84
2022/08/18 13:46:08;;;;;;;;;;;23.20;99.90;;;;;;5010141;28;20263;-86
2022/08/18 13:48:34;;;;;;;;;;;23.40;99.90;;;;;;5012773;28;19925;-85
2022/08/18 13:51:00;;;;;;;;;;;23.50;99.90;;;;;;5008525;28;19921;-84
2022/08/18 13:53:27;;;;;;;;;;;23.40;99.90;;;;;;5005772;28;19925;-84
2022/08/18 13:55:53;;;;;;;;;;;23.30;99.90;;;;;;5011481;28;20389;-84
2022/08/18 13:58:19;;;;;;;;;;;23.20;99.90;;;;;;5007213;28;19926;-85
2022/08/18 14:00:45;;;;;;;;;;;23.10;99.90;;;;;;4992537;28;19921;-86
2022/08/18 14:03:11;;;;;;;;;;;23.10;99.90;;;;;;4996327;28;20488;-85
2022/08/18 14:05:36;;;;;;;;;;;23.20;99.90;;;;;;4993519;28;19921;-86
2022/08/18 14:08:02;;;;;;;;;;;23.30;99.90;;;;;;4993648;28;19928;-86
2022/08/18 14:10:29;;;;;;;;;;;23.40;99.90;;;;;;5008868;28;19929;-85
2022/08/18 14:12:56;;;;;;;;;;;23.40;99.90;;;;;;5012870;28;19929;-83
2022/08/18 14:15:22;;;;;;;;;;;23.40;99.90;;;;;;5011922;28;20428;-85
2022/08/18 14:17:47;;;;;;;;;;;23.40;99.90;;;;;;5026345;28;20040;-86
2022/08/18 14:28:28;;;;;;;;;;;22.90;99.90;;;;;;5010245;28;19936;-85
2022/08/18 14:30:55;;;;;;;;;;;22.70;99.90;;;;;;4995286;28;20332;-84
2022/08/18 14:33:21;;;;;;;;;;;22.60;99.90;;;;;;4991704;28;20728;-85
2022/08/18 14:35:46;;;;;;;;;;;22.80;99.90;;;;;;5011421;28;20509;-84
2022/08/18 14:38:13;;;;;;;;;;;23.00;99.90;;;;;;5010382;28;19921;-86
2022/08/18 14:40:39;;;;;;;;;;;23.00;99.90;;;;;;4994614;28;19948;-85
2022/08/18 14:43:06;;;;;;;;;;;23.10;99.90;;;;;;4995622;28;20366;-86
2022/08/18 14:45:32;;;;;;;;;;;23.00;99.90;;;;;;4993821;28;19921;-85
2022/08/18 14:47:58;;;;;;;;;;;23.10;99.90;;;;;;5024897;28;20034;-87
2022/08/18 14:50:24;;;;;;;;;;;22.90;99.90;;;;;;5010831;28;19924;-82
2022/08/18 14:52:50;;;;;;;;;;;23.10;99.90;;;;;;5011024;28;19925;-85